»·PEaware :: N6870P KLAX-KSNA

N6870P :: KLAX-KSNA

FLIGHT INFORMATION

Flight Status: Arrived
Operator: Privately registered:
United States
More flights under this callsign
Pilot: Larry J. (31147)
Aircraft: PIPER PA-24 COMMANCHE
(PA24)
More flights by this aircraft type
Origin: KLAX Los Angeles Intl
United States
Destination: KSNA John Wayne-Orange Co
United States
More flights between these airports :: More routes between these airports
Route: +SLI8 SLI
File this flight plan on PilotEdge
Remarks:
Altitude:
(Current/Filed)
4,000ft
Speed:
(Current/Filed)
165kts
Departed: 19-Oct-20 07:29 AM
Arrived: 19-Oct-20 08:03 AM
Distance/Time
Traveled:
31nm/0:34
Distance/Time
To Go:
Arrived

Flight Plot

Page will automatically refresh every two minutes.

Flight plan parsing failed; only flown route is shown


Map Options




Map Legend


Flown Route
Filed Route
Departure Airport
Arrival Airport
Navaid (VOR, NDB)
Fix

Horizontal Profiles

Position Reports

Time Latitude Longitude Heading Altitude Ground
Speed
19-Oct-20 07:14 33.934150 -118.394989 176 103ft 0kts
19-Oct-20 07:15 33.934150 -118.394989 176 103ft 0kts
19-Oct-20 07:16 33.934150 -118.394989 176 103ft 0kts
19-Oct-20 07:17 33.934150 -118.394989 176 103ft 0kts
19-Oct-20 07:18 33.934150 -118.394989 176 103ft 0kts
19-Oct-20 07:19 33.934150 -118.394989 176 103ft 0kts
19-Oct-20 07:20 33.934150 -118.394989 176 103ft 0kts
19-Oct-20 07:21 33.934150 -118.394989 176 103ft 0kts
19-Oct-20 07:22 33.934150 -118.394989 176 103ft 0kts
19-Oct-20 07:23 33.935166 -118.392268 84 100ft 17kts
19-Oct-20 07:24 33.935908 -118.384885 87 97ft 17kts
19-Oct-20 07:25 33.936231 -118.382994 32 94ft 0kts
19-Oct-20 07:26 33.936233 -118.382993 26 94ft 0kts
19-Oct-20 07:27 33.937150 -118.383017 313 94ft 14kts
19-Oct-20 07:28 33.935184 -118.407266 258 460ft 111kts
19-Oct-20 07:29 33.928042 -118.444488 246 1271ft 115kts
19-Oct-20 07:30 33.903835 -118.466656 212 2082ft 109kts
19-Oct-20 07:31 33.878085 -118.487550 212 2885ft 113kts
19-Oct-20 07:32 33.850393 -118.510032 212 3702ft 132kts
19-Oct-20 07:34 33.819202 -118.516658 161 4013ft 139kts
19-Oct-20 07:35 33.775667 -118.499970 159 4001ft 176kts
19-Oct-20 07:36 33.763800 -118.445998 91 3999ft 179kts
19-Oct-20 07:37 33.762348 -118.401837 91 3999ft 179kts
19-Oct-20 07:38 33.764914 -118.341891 83 3999ft 179kts
19-Oct-20 07:39 33.769066 -118.282197 86 3997ft 179kts
19-Oct-20 07:40 33.772995 -118.222252 84 4000ft 181kts
19-Oct-20 07:41 33.777221 -118.161274 83 3999ft 183kts
19-Oct-20 07:42 33.780923 -118.100104 84 3999ft 183kts
19-Oct-20 07:43 33.792267 -118.042003 45 4008ft 180kts
19-Oct-20 07:44 33.811720 -117.992349 66 3999ft 159kts
19-Oct-20 07:45 33.830390 -117.943758 63 4004ft 171kts
19-Oct-20 07:46 33.851800 -117.889510 63 3999ft 182kts
19-Oct-20 07:47 33.873214 -117.834697 64 3994ft 168kts
19-Oct-20 07:48 33.893051 -117.784176 64 3996ft 165kts
19-Oct-20 07:49 33.908164 -117.745555 63 3997ft 115kts
19-Oct-20 07:50 33.922805 -117.711560 34 4004ft 114kts
19-Oct-20 07:50 33.946461 -117.697315 27 3999ft 114kts
19-Oct-20 07:52 33.957645 -117.716813 197 4013ft 114kts
19-Oct-20 07:52 33.932354 -117.709815 181 3992ft 115kts
19-Oct-20 07:54 33.898426 -117.727065 205 3999ft 114kts
19-Oct-20 07:55 33.868847 -117.745538 206 4000ft 125kts
19-Oct-20 07:55 33.841703 -117.762800 206 3594ft 139kts
19-Oct-20 07:57 33.801925 -117.788337 208 2735ft 118kts
19-Oct-20 07:57 33.783230 -117.800289 206 2348ft 83kts
19-Oct-20 07:59 33.756436 -117.817329 206 1758ft 93kts
19-Oct-20 07:59 33.737858 -117.829175 206 1331ft 86kts
19-Oct-20 08:00 33.717308 -117.842257 206 885ft 88kts
19-Oct-20 08:01 33.695626 -117.856093 206 402ft 81kts
19-Oct-20 08:02 33.678819 -117.866866 201 58ft 0kts
19-Oct-20 08:03 33.678098 -117.868742 282 58ft 3kts
19-Oct-20 08:04 33.678358 -117.869327 344 58ft 0kts

Navigation Log

Ident Type
Flight plan parsing failed, navigation log unavailable